Time;durP1;ratioP1;P1;durP2;ratioP2;P2;SDS_P1;SDS_P2;PMS_P1;PMS_P2;Temp;Humidity;BMP_temperature;BMP_pressure;BME280_temperature;BME280_humidity;BME280_pressure;Samples;Min_cycle;Max_cycle;Signal;HPM_P1;HPM_P2
2022/07/17 00:01:06;;;;;;;6.28;2.13;;;15.00;99.90;;;;;;5045751;28;20185;-62
2022/07/17 00:03:32;;;;;;;6.50;2.10;;;15.00;99.90;;;;;;5072455;28;20492;-63
2022/07/17 00:05:59;;;;;;;7.47;2.30;;;15.00;99.90;;;;;;5071853;28;20053;-62
2022/07/17 00:08:24;;;;;;;5.97;2.10;;;15.00;99.90;;;;;;5070684;28;20072;-62
2022/07/17 00:10:51;;;;;;;6.85;2.40;;;15.00;99.90;;;;;;5071444;28;20058;-63
2022/07/17 00:13:17;;;;;;;6.07;2.03;;;15.00;99.90;;;;;;5072578;28;20413;-62
2022/07/17 00:15:43;;;;;;;7.50;2.10;;;14.90;99.90;;;;;;5070761;28;20060;-62
2022/07/17 00:18:09;;;;;;;5.28;2.05;;;14.90;99.90;;;;;;5071935;28;20059;-62
2022/07/17 00:20:35;;;;;;;9.57;2.55;;;14.90;99.90;;;;;;5070295;28;20401;-62
2022/07/17 00:23:01;;;;;;;5.05;2.30;;;14.80;99.90;;;;;;5071825;28;20541;-62
2022/07/17 00:25:27;;;;;;;6.13;2.10;;;14.80;99.90;;;;;;5072163;28;20448;-62
2022/07/17 00:27:53;;;;;;;5.82;2.55;;;14.80;99.90;;;;;;5071439;28;20040;-63
2022/07/17 00:30:19;;;;;;;7.65;2.47;;;14.80;99.90;;;;;;5068193;28;20497;-62
2022/07/17 00:32:45;;;;;;;11.65;2.90;;;14.70;99.90;;;;;;5071527;28;20106;-62
2022/07/17 00:35:12;;;;;;;7.13;2.30;;;14.70;99.90;;;;;;5070975;28;20493;-62
2022/07/17 00:37:40;;;;;;;7.85;2.40;;;14.70;99.90;;;;;;5071431;28;20040;-62
2022/07/17 00:40:07;;;;;;;5.03;2.30;;;14.70;99.90;;;;;;5071241;28;20048;-62
2022/07/17 00:42:33;;;;;;;6.53;2.10;;;14.60;99.90;;;;;;5049460;28;20394;-62
2022/07/17 00:44:59;;;;;;;7.55;2.65;;;14.60;99.90;;;;;;5069942;28;20040;-63
2022/07/17 00:47:24;;;;;;;8.05;2.58;;;14.60;99.90;;;;;;5070018;28;20117;-62
2022/07/17 00:49:50;;;;;;;6.90;2.67;;;14.60;99.90;;;;;;5071758;28;20048;-62
2022/07/17 00:52:17;;;;;;;4.93;2.38;;;14.60;99.90;;;;;;5068734;28;20044;-62
2022/07/17 00:54:45;;;;;;;5.10;2.40;;;14.60;99.90;;;;;;5071238;28;20083;-63
2022/07/17 00:57:13;;;;;;;5.90;2.30;;;14.50;99.90;;;;;;5069897;28;20063;-63
2022/07/17 00:59:39;;;;;;;6.25;2.38;;;14.50;99.90;;;;;;5061175;28;20079;-62
2022/07/17 01:02:07;;;;;;;6.07;2.75;;;14.40;99.90;;;;;;5068007;28;20037;-62
2022/07/17 01:04:34;;;;;;;5.05;2.60;;;14.40;99.90;;;;;;5069890;28;20422;-62
2022/07/17 01:07:00;;;;;;;4.68;2.25;;;14.40;99.90;;;;;;5056558;28;20052;-63
2022/07/17 01:09:27;;;;;;;5.85;2.47;;;14.40;99.90;;;;;;5071022;28;20060;-62
2022/07/17 01:11:54;;;;;;;6.63;2.72;;;14.30;99.90;;;;;;5070523;28;20052;-63
2022/07/17 01:14:20;;;;;;;7.68;2.33;;;14.30;99.90;;;;;;5070025;28;20051;-62
2022/07/17 01:16:46;;;;;;;7.32;2.80;;;14.30;99.90;;;;;;5071412;28;20078;-62
2022/07/17 01:19:12;;;;;;;7.22;2.88;;;14.20;99.90;;;;;;5069645;28;20484;-62
2022/07/17 01:21:47;;;;;;;6.05;2.92;;;14.30;99.90;;;;;;5049990;28;20049;-63
2022/07/17 01:24:13;;;;;;;8.80;3.08;;;14.20;99.90;;;;;;5065833;28;20110;-62
2022/07/17 01:26:43;;;;;;;8.65;3.20;;;14.20;99.90;;;;;;5068112;28;20045;-62
2022/07/17 01:29:11;;;;;;;6.50;2.70;;;14.20;99.90;;;;;;5066478;28;20044;-63
2022/07/17 01:31:38;;;;;;;7.53;2.55;;;14.10;99.90;;;;;;5055496;28;20107;-64
2022/07/17 01:34:07;;;;;;;7.88;3.15;;;14.10;99.90;;;;;;5053797;28;20375;-63
2022/07/17 01:36:33;;;;;;;5.70;2.72;;;14.10;99.90;;;;;;5063148;28;20119;-63
2022/07/17 01:38:58;;;;;;;7.43;3.00;;;14.10;99.90;;;;;;5056423;28;20506;-62
2022/07/17 01:41:24;;;;;;;7.75;2.78;;;14.00;99.90;;;;;;5066310;28;20057;-64
2022/07/17 01:43:50;;;;;;;7.40;2.83;;;14.00;99.90;;;;;;5061451;28;20060;-62
2022/07/17 01:46:16;;;;;;;6.25;3.00;;;14.00;99.90;;;;;;5067756;28;20122;-63
2022/07/17 01:48:41;;;;;;;7.57;3.00;;;14.00;99.90;;;;;;5063908;28;20044;-62
2022/07/17 01:51:07;;;;;;;7.05;3.30;;;14.00;99.90;;;;;;5069654;28;20072;-62
2022/07/17 01:53:33;;;;;;;10.80;3.30;;;14.00;99.90;;;;;;5067872;28;20052;-63
2022/07/17 01:55:59;;;;;;;7.32;2.60;;;14.00;99.90;;;;;;5069243;28;20405;-62
2022/07/17 01:58:25;;;;;;;6.82;3.10;;;13.90;99.90;;;;;;5070350;28;20048;-62
2022/07/17 02:00:51;;;;;;;5.90;2.90;;;13.90;99.90;;;;;;5061696;28;20059;-62
2022/07/17 02:03:17;;;;;;;6.32;2.90;;;13.90;99.90;;;;;;5059869;28;20077;-62
2022/07/17 02:05:43;;;;;;;6.63;3.00;;;13.90;99.90;;;;;;5058711;28;20117;-63
2022/07/17 02:08:09;;;;;;;7.57;3.25;;;13.90;99.90;;;;;;5051218;28;20041;-62
2022/07/17 02:10:35;;;;;;;8.52;3.03;;;13.90;99.90;;;;;;5081362;28;20072;-62
2022/07/17 02:13:01;;;;;;;8.88;3.30;;;13.90;99.90;;;;;;5061558;28;20060;-62
2022/07/17 02:15:27;;;;;;;7.95;3.10;;;13.90;99.90;;;;;;5068050;28;20395;-62
2022/07/17 02:17:53;;;;;;;6.20;2.80;;;13.90;99.90;;;;;;5070467;28;20045;-62
2022/07/17 02:20:18;;;;;;;6.30;3.03;;;13.80;99.90;;;;;;5068626;28;20044;-62
2022/07/17 02:22:45;;;;;;;6.97;2.63;;;13.80;99.90;;;;;;5067584;28;20078;-62
2022/07/17 02:25:11;;;;;;;8.13;2.92;;;13.80;99.90;;;;;;5069056;28;20055;-62
2022/07/17 02:27:37;;;;;;;6.07;2.58;;;13.80;99.90;;;;;;5069753;28;20597;-63
2022/07/17 02:30:09;;;;;;;7.55;2.90;;;13.80;99.90;;;;;;5069520;28;20044;-62
2022/07/17 02:32:35;;;;;;;5.78;2.75;;;13.80;99.90;;;;;;5072053;28;20040;-62
2022/07/17 02:35:01;;;;;;;6.90;3.38;;;13.80;99.90;;;;;;5074428;28;20048;-63
2022/07/17 02:37:27;;;;;;;9.52;3.08;;;13.60;99.90;;;;;;5071570;28;20382;-62
2022/07/17 02:39:52;;;;;;;5.35;2.58;;;13.80;99.90;;;;;;5063262;28;20056;-62
2022/07/17 02:42:26;;;;;;;6.88;3.08;;;13.70;99.90;;;;;;5070039;28;20048;-62
2022/07/17 02:44:53;;;;;;;7.80;3.33;;;13.70;99.90;;;;;;5073166;28;20135;-62
2022/07/17 02:47:27;;;;;;;8.25;3.38;;;13.70;99.90;;;;;;5072483;28;20043;-62
2022/07/17 02:49:53;;;;;;;11.25;3.45;;;13.60;99.90;;;;;;5060694;28;20119;-62
2022/07/17 02:52:19;;;;;;;7.28;3.47;;;13.60;99.90;;;;;;5071696;28;20517;-62
2022/07/17 02:54:45;;;;;;;6.55;3.42;;;13.50;99.90;;;;;;5072264;28;20068;-62
2022/07/17 02:57:12;;;;;;;9.05;3.78;;;13.50;99.90;;;;;;5073807;28;20040;-65
2022/07/17 02:59:38;;;;;;;7.30;3.42;;;13.50;99.90;;;;;;5072562;28;20150;-62
2022/07/17 03:02:04;;;;;;;11.40;3.70;;;13.40;99.90;;;;;;5065229;28;20080;-62
2022/07/17 03:04:30;;;;;;;7.82;3.17;;;13.50;99.90;;;;;;5046913;28;20053;-62
2022/07/17 03:06:55;;;;;;;7.65;3.05;;;13.50;99.90;;;;;;5073628;28;20478;-62
2022/07/17 03:09:21;;;;;;;6.18;2.72;;;13.50;99.90;;;;;;5072315;28;20570;-62
2022/07/17 03:11:47;;;;;;;10.38;3.50;;;13.50;99.90;;;;;;5061528;28;20045;-62
2022/07/17 03:14:13;;;;;;;7.30;3.22;;;13.50;99.90;;;;;;5063984;28;20371;-64
2022/07/17 03:16:39;;;;;;;7.65;3.05;;;13.50;99.90;;;;;;5071450;28;20098;-61
2022/07/17 03:19:04;;;;;;;6.72;2.95;;;13.50;99.90;;;;;;5055781;28;20143;-62
2022/07/17 03:21:30;;;;;;;9.75;3.20;;;13.50;99.90;;;;;;5059442;28;20099;-62
2022/07/17 03:23:56;;;;;;;5.85;3.38;;;13.50;99.90;;;;;;5073540;28;20051;-62
2022/07/17 03:26:21;;;;;;;8.00;3.00;;;13.40;99.90;;;;;;5071668;28;20047;-62
2022/07/17 03:28:47;;;;;;;6.90;2.88;;;13.40;99.90;;;;;;5072309;28;20386;-61
2022/07/17 03:31:13;;;;;;;5.82;2.63;;;13.40;99.90;;;;;;5069413;28;20045;-62
2022/07/17 03:33:38;;;;;;;8.32;2.90;;;13.40;99.90;;;;;;5072511;28;20044;-63
2022/07/17 03:36:04;;;;;;;8.45;2.78;;;13.40;99.90;;;;;;5072929;28;20111;-62
2022/07/17 03:38:30;;;;;;;5.68;2.75;;;13.50;99.90;;;;;;5060211;28;20142;-62
2022/07/17 03:40:56;;;;;;;5.65;2.88;;;13.50;99.90;;;;;;5062117;28;20052;-62
2022/07/17 03:43:21;;;;;;;7.75;2.80;;;13.50;99.90;;;;;;5071514;28;20091;-62
2022/07/17 03:45:47;;;;;;;10.38;3.35;;;13.50;99.90;;;;;;5072674;28;20052;-62
2022/07/17 03:48:13;;;;;;;10.55;2.88;;;13.50;99.90;;;;;;5072693;28;20036;-61
2022/07/17 03:50:39;;;;;;;6.68;2.70;;;13.60;99.90;;;;;;5069426;28;20052;-62
2022/07/17 03:53:05;;;;;;;7.40;2.72;;;13.60;99.90;;;;;;5071088;28;20040;-64
2022/07/17 03:55:31;;;;;;;7.10;2.70;;;13.60;99.90;;;;;;5071594;28;20139;-62
2022/07/17 03:57:56;;;;;;;5.70;2.90;;;13.60;99.90;;;;;;5071420;28;20052;-62
2022/07/17 04:00:23;;;;;;;7.00;2.65;;;13.60;99.90;;;;;;5053336;28;20048;-62
2022/07/17 04:02:48;;;;;;;7.80;2.80;;;13.60;99.90;;;;;;5070661;28;20120;-62
2022/07/17 04:05:14;;;;;;;6.25;2.55;;;13.60;99.90;;;;;;5072350;28;20167;-62
2022/07/17 04:07:41;;;;;;;7.50;2.60;;;13.60;99.90;;;;;;5071748;28;20290;-62
2022/07/17 04:10:09;;;;;;;6.85;2.47;;;13.60;99.90;;;;;;5070485;28;20378;-62
2022/07/17 04:12:35;;;;;;;8.02;2.90;;;13.70;99.90;;;;;;5070588;28;20048;-62
2022/07/17 04:15:01;;;;;;;9.73;2.60;;;13.70;99.90;;;;;;5071255;28;20048;-62
2022/07/17 04:17:27;;;;;;;6.20;2.45;;;13.70;99.90;;;;;;5053911;28;20045;-61
2022/07/17 04:19:53;;;;;;;8.65;2.42;;;13.70;99.90;;;;;;5070928;28;20127;-62
2022/07/17 04:22:19;;;;;;;5.05;2.00;;;13.80;99.90;;;;;;5071920;28;20122;-62
2022/07/17 04:24:45;;;;;;;7.00;2.80;;;13.80;99.90;;;;;;5053632;28;20511;-62
2022/07/17 04:27:11;;;;;;;5.28;2.30;;;13.80;99.90;;;;;;5072052;28;20131;-62
2022/07/17 04:29:37;;;;;;;6.32;2.50;;;13.80;99.90;;;;;;5069588;28;20066;-62
2022/07/17 04:32:03;;;;;;;6.72;2.13;;;13.80;99.90;;;;;;5068659;28;20040;-61
2022/07/17 04:34:29;;;;;;;5.90;2.42;;;13.80;99.90;;;;;;5071362;28;20052;-62
2022/07/17 04:36:55;;;;;;;6.68;2.35;;;13.80;99.90;;;;;;5071946;28;20052;-62
2022/07/17 04:39:21;;;;;;;6.10;2.22;;;13.90;99.90;;;;;;5058751;28;20505;-62
2022/07/17 04:41:47;;;;;;;6.93;2.17;;;13.90;99.90;;;;;;5071405;28;20397;-62
2022/07/17 04:44:12;;;;;;;8.52;2.30;;;14.00;99.90;;;;;;5069718;28;20045;-62
2022/07/17 04:46:38;;;;;;;8.05;2.60;;;14.00;99.90;;;;;;5069746;28;20072;-62
2022/07/17 04:49:04;;;;;;;7.40;2.67;;;14.00;99.90;;;;;;5071288;28;20106;-62
2022/07/17 04:51:29;;;;;;;6.05;2.40;;;14.00;99.90;;;;;;5066665;28;20056;-62
2022/07/17 04:53:56;;;;;;;6.18;2.47;;;14.00;99.90;;;;;;5071481;28;20128;-62
2022/07/17 04:56:22;;;;;;;7.93;2.78;;;14.00;99.90;;;;;;5071118;28;20040;-62
2022/07/17 04:58:47;;;;;;;8.07;2.63;;;14.00;99.90;;;;;;5066655;28;20298;-63
2022/07/17 05:01:13;;;;;;;6.53;2.75;;;14.00;99.90;;;;;;5063154;28;20430;-62
2022/07/17 05:03:39;;;;;;;6.72;2.42;;;14.00;99.90;;;;;;5069308;28;20052;-62
2022/07/17 05:06:05;;;;;;;7.85;2.42;;;14.00;99.90;;;;;;5071356;28;20060;-62
2022/07/17 05:08:31;;;;;;;8.02;3.22;;;14.00;99.90;;;;;;5069819;28;20052;-62
2022/07/17 05:10:57;;;;;;;7.30;2.80;;;14.10;99.90;;;;;;5068164;28;20389;-62
2022/07/17 05:13:22;;;;;;;6.63;2.60;;;14.10;99.90;;;;;;5086909;28;20048;-62
2022/07/17 05:15:49;;;;;;;9.02;2.97;;;14.10;99.90;;;;;;5069755;28;20044;-62
2022/07/17 05:18:15;;;;;;;6.72;2.45;;;14.10;99.90;;;;;;5052836;28;20513;-62
2022/07/17 05:20:40;;;;;;;8.60;2.70;;;14.10;99.90;;;;;;5068011;28;20083;-63
2022/07/17 05:23:06;;;;;;;7.63;2.88;;;14.20;99.90;;;;;;5076479;28;20051;-62
2022/07/17 05:25:32;;;;;;;8.27;2.42;;;14.20;99.90;;;;;;5068877;28;20041;-64
2022/07/17 05:27:58;;;;;;;8.43;2.40;;;14.20;99.90;;;;;;5071191;28;20037;-62
2022/07/17 05:30:25;;;;;;;5.60;2.38;;;14.20;99.90;;;;;;5069643;28;20040;-62
2022/07/17 05:32:50;;;;;;;4.72;2.55;;;14.20;99.90;;;;;;5070200;28;20291;-62
2022/07/17 05:35:16;;;;;;;10.55;2.75;;;14.20;99.90;;;;;;5052465;28;20542;-62
2022/07/17 05:37:42;;;;;;;7.82;2.30;;;14.30;99.90;;;;;;5065958;28;20040;-62
2022/07/17 05:40:08;;;;;;;7.28;2.30;;;14.30;99.90;;;;;;5067405;28;20101;-62
2022/07/17 05:42:34;;;;;;;5.07;2.17;;;14.40;99.90;;;;;;5070120;28;20044;-64
2022/07/17 05:45:00;;;;;;;4.78;2.05;;;14.50;99.90;;;;;;5052876;28;20051;-62
2022/07/17 05:47:25;;;;;;;4.00;1.98;;;14.60;99.90;;;;;;5070223;28;20052;-62
2022/07/17 05:49:51;;;;;;;6.40;2.65;;;14.80;99.90;;;;;;5062496;28;20458;-61
2022/07/17 05:52:17;;;;;;;4.72;2.20;;;15.20;99.90;;;;;;5064735;28;20049;-61
2022/07/17 05:54:43;;;;;;;10.20;2.47;;;16.10;99.90;;;;;;5053684;28;20053;-62
2022/07/17 05:57:09;;;;;;;7.55;1.92;;;17.50;99.90;;;;;;5051774;28;20440;-61
2022/07/17 05:59:34;;;;;;;5.43;2.35;;;18.90;99.90;;;;;;5057246;28;20036;-65
2022/07/17 06:02:01;;;;;;;5.93;2.28;;;;;;;;;;5051722;28;20441;-62
2022/07/17 06:04:26;;;;;;;4.97;2.08;;;20.10;99.80;;;;;;5050114;28;20049;-62
2022/07/17 06:06:52;;;;;;;6.43;2.22;;;21.90;97.30;;;;;;5053021;28;20040;-63
2022/07/17 06:09:18;;;;;;;5.05;1.90;;;22.50;96.10;;;;;;5051589;28;20041;-62
2022/07/17 06:11:44;;;;;;;5.55;2.00;;;23.10;94.60;;;;;;5055237;28;20513;-62
2022/07/17 06:14:10;;;;;;;7.05;1.88;;;23.40;93.40;;;;;;5050358;28;20049;-62
2022/07/17 06:16:35;;;;;;;3.28;1.85;;;23.80;93.60;;;;;;5048982;28;20082;-66
2022/07/17 06:19:01;;;;;;;5.40;1.60;;;24.30;93.30;;;;;;5054931;28;20048;-63
2022/07/17 06:21:27;;;;;;;5.85;1.42;;;24.70;93.10;;;;;;5054825;28;20033;-63
2022/07/17 06:23:53;;;;;;;3.13;1.40;;;25.10;91.30;;;;;;5055694;28;20401;-63
2022/07/17 06:26:19;;;;;;;5.85;1.70;;;25.40;90.60;;;;;;5049384;28;20045;-61
2022/07/17 06:28:45;;;;;;;4.85;1.70;;;25.70;90.80;;;;;;5054651;28;20053;-62
2022/07/17 06:31:11;;;;;;;4.55;1.73;;;25.80;90.10;;;;;;5065949;28;20052;-64
2022/07/17 06:33:38;;;;;;;5.63;1.60;;;26.20;90.20;;;;;;5050254;28;20078;-63
2022/07/17 06:36:04;;;;;;;5.03;1.60;;;26.00;90.10;;;;;;5051921;28;20049;-61
2022/07/17 06:38:29;;;;;;;5.45;1.35;;;25.20;89.80;;;;;;5053072;28;20044;-62
2022/07/17 06:40:55;;;;;;;4.85;1.40;;;24.20;90.60;;;;;;5068678;28;20044;-61
2022/07/17 06:43:22;;;;;;;3.05;1.50;;;23.30;91.50;;;;;;5058182;28;20049;-62
2022/07/17 06:45:48;;;;;;;6.43;1.73;;;22.60;92.00;;;;;;5048212;28;20487;-64
2022/07/17 06:48:13;;;;;;;6.97;1.77;;;22.00;93.10;;;;;;5054804;28;20123;-63
2022/07/17 06:50:40;;;;;;;5.88;1.75;;;21.50;93.50;;;;;;5055246;28;20378;-63
2022/07/17 06:53:06;;;;;;;4.50;2.03;;;21.10;94.00;;;;;;5051975;28;20041;-63
2022/07/17 06:55:32;;;;;;;5.70;1.52;;;20.70;94.80;;;;;;5068497;28;20540;-63
2022/07/17 06:57:58;;;;;;;5.65;2.00;;;20.40;95.40;;;;;;5063392;28;20044;-63
2022/07/17 07:00:23;;;;;;;6.15;1.58;;;20.20;95.90;;;;;;5067221;28;20072;-64
2022/07/17 07:02:49;;;;;;;5.28;1.70;;;19.90;96.10;;;;;;5034872;28;20052;-63
2022/07/17 07:05:15;;;;;;;5.15;2.00;;;19.70;96.60;;;;;;5066683;28;20421;-62
2022/07/17 07:07:40;;;;;;;5.47;2.13;;;19.50;96.80;;;;;;5068247;28;20036;-61
2022/07/17 07:10:07;;;;;;;5.50;1.70;;;19.40;96.90;;;;;;5068009;28;20040;-62
2022/07/17 07:12:33;;;;;;;7.40;1.88;;;19.30;97.30;;;;;;5069965;28;20052;-61
2022/07/17 07:14:59;;;;;;;6.25;1.80;;;19.20;97.50;;;;;;5068785;28;20124;-62
2022/07/17 07:17:25;;;;;;;4.40;1.42;;;19.20;97.90;;;;;;5049024;28;20044;-61
2022/07/17 07:19:50;;;;;;;5.53;1.75;;;19.20;98.10;;;;;;5063931;28;20060;-62
2022/07/17 07:22:16;;;;;;;6.75;2.10;;;19.20;98.20;;;;;;5072224;28;20052;-62
2022/07/17 07:24:42;;;;;;;5.65;1.75;;;19.10;98.20;;;;;;5041471;28;20524;-61
2022/07/17 07:27:07;;;;;;;4.97;1.30;;;19.10;98.40;;;;;;5056808;28;20045;-63
2022/07/17 07:29:33;;;;;;;9.38;1.85;;;19.10;98.30;;;;;;5071386;28;20082;-63
2022/07/17 07:31:59;;;;;;;4.93;1.80;;;19.20;98.30;;;;;;5071166;28;20052;-62
2022/07/17 07:34:26;;;;;;;7.20;1.67;;;19.20;98.30;;;;;;5073074;28;20051;-63
2022/07/17 07:36:52;;;;;;;7.80;1.80;;;19.30;98.50;;;;;;5068036;28;20067;-62
2022/07/17 07:39:17;;;;;;;6.50;1.88;;;19.40;98.60;;;;;;5068270;28;20375;-63
2022/07/17 07:41:43;;;;;;;7.55;2.10;;;19.50;98.20;;;;;;5072875;28;20057;-63
2022/07/17 07:44:08;;;;;;;8.10;2.00;;;19.60;98.20;;;;;;5072006;28;20811;-63
2022/07/17 07:46:34;;;;;;;4.40;1.40;;;19.60;98.00;;;;;;5072928;28;20036;-63
2022/07/17 07:49:00;;;;;;;4.82;1.65;;;19.60;97.40;;;;;;5069297;28;20048;-64
2022/07/17 07:51:26;;;;;;;5.13;1.40;;;19.60;97.50;;;;;;5071159;28;20040;-63
2022/07/17 07:53:52;;;;;;;3.47;1.20;;;19.70;97.70;;;;;;5040279;28;20132;-64
2022/07/17 07:56:18;;;;;;;5.25;1.50;;;19.70;97.50;;;;;;5056430;28;20115;-61
2022/07/17 07:58:43;;;;;;;5.13;1.45;;;19.80;97.40;;;;;;5067228;28;20059;-63
2022/07/17 08:01:09;;;;;;;3.65;1.40;;;19.90;97.20;;;;;;5067736;28;20057;-63
2022/07/17 08:03:35;;;;;;;5.68;1.95;;;20.00;97.40;;;;;;5065255;28;20056;-62
2022/07/17 08:06:01;;;;;;;6.22;1.75;;;20.20;97.30;;;;;;5052469;28;20052;-62
2022/07/17 08:08:26;;;;;;;5.97;1.38;;;20.60;96.60;;;;;;5071096;28;20048;-62
2022/07/17 08:10:52;;;;;;;5.05;1.40;;;21.20;96.40;;;;;;5070918;28;20414;-66
2022/07/17 08:13:18;;;;;;;5.05;1.77;;;22.40;95.70;;;;;;5072327;28;20044;-63
2022/07/17 08:15:44;;;;;;;4.22;1.40;;;23.40;93.90;;;;;;5065107;28;20391;-63
2022/07/17 08:18:09;;;;;;;5.57;1.75;;;24.50;92.90;;;;;;5051835;28;20033;-62
2022/07/17 08:20:35;;;;;;;5.28;1.50;;;25.40;91.90;;;;;;5055458;28;20048;-62
2022/07/17 08:23:01;;;;;;;6.28;1.50;;;26.20;90.80;;;;;;5067902;28;20072;-63
2022/07/17 08:25:26;;;;;;;5.45;1.70;;;26.80;89.50;;;;;;5066186;28;20136;-63
2022/07/17 08:27:52;;;;;;;5.30;1.50;;;27.40;88.40;;;;;;5057067;28;20133;-64
2022/07/17 08:30:18;;;;;;;5.97;1.77;;;27.80;87.50;;;;;;5066750;28;20055;-63
2022/07/17 08:32:44;;;;;;;5.32;1.50;;;28.10;86.80;;;;;;5063997;28;20048;-64
2022/07/17 08:35:11;;;;;;;4.72;1.50;;;28.50;86.50;;;;;;5061504;28;20413;-64
2022/07/17 08:38:03;;;;;;;5.00;1.70;;;28.90;85.50;;;;;;5059888;28;20699;-62
2022/07/17 08:40:32;;;;;;;3.60;1.50;;;29.20;84.80;;;;;;5052914;28;20134;-64
2022/07/17 08:42:59;;;;;;;4.47;1.30;;;29.50;84.50;;;;;;5054459;28;20060;-62
2022/07/17 08:45:25;;;;;;;5.35;1.48;;;29.70;83.80;;;;;;5040918;28;20068;-62
2022/07/17 08:47:53;;;;;;;4.20;1.25;;;30.10;82.50;;;;;;5066927;28;20041;-63
2022/07/17 08:50:30;;;;;;;4.85;1.30;;;29.80;82.20;;;;;;5058086;28;20052;-62
2022/07/17 08:52:56;;;;;;;3.45;1.20;;;29.90;81.80;;;;;;5060519;28;20068;-67
2022/07/17 08:55:22;;;;;;;3.10;1.38;;;29.80;83.10;;;;;;5057592;28;20507;-61
2022/07/17 08:57:48;;;;;;;4.20;1.40;;;29.70;82.30;;;;;;5053380;28;20116;-63
2022/07/17 09:00:18;;;;;;;4.43;1.40;;;30.00;80.70;;;;;;5050884;28;20127;-63
2022/07/17 09:02:58;;;;;;;4.28;1.40;;;30.20;81.00;;;;;;5051232;28;20041;-64
2022/07/17 09:05:27;;;;;;;4.75;1.45;;;30.30;81.00;;;;;;5064160;28;20091;-61
2022/07/17 09:07:53;;;;;;;6.50;1.50;;;30.20;80.60;;;;;;5062598;28;20488;-63
2022/07/17 09:10:29;;;;;;;4.93;1.27;;;30.30;80.00;;;;;;5049695;28;20056;-62
2022/07/17 09:12:54;;;;;;;6.50;1.60;;;30.30;79.70;;;;;;5066996;28;20131;-62
2022/07/17 09:15:20;;;;;;;4.93;1.58;;;30.40;79.60;;;;;;5060746;28;20305;-63
2022/07/17 09:17:54;;;;;;;4.40;1.33;;;30.50;78.30;;;;;;5061978;28;20041;-63
2022/07/17 09:20:21;;;;;;;3.60;1.20;;;30.30;78.70;;;;;;5068434;28;20044;-63
2022/07/17 09:23:18;;;;;;;4.90;1.65;;;30.30;78.40;;;;;;5065671;28;20501;-62
2022/07/17 09:25:45;;;;;;;2.50;1.13;;;30.00;78.00;;;;;;5056601;28;20060;-63
2022/07/17 09:28:16;;;;;;;5.13;1.60;;;30.00;78.40;;;;;;5057564;28;20124;-62
2022/07/17 09:30:49;;;;;;;4.35;1.33;;;30.00;78.30;;;;;;5067137;28;20133;-62
2022/07/17 09:33:17;;;;;;;4.28;1.45;;;29.80;78.40;;;;;;5068742;28;20171;-62
2022/07/17 09:35:55;;;;;;;3.42;1.20;;;29.80;79.60;;;;;;5069580;28;20131;-62
2022/07/17 09:38:30;;;;;;;2.78;1.17;;;29.90;79.70;;;;;;5067215;28;20037;-62
2022/07/17 09:41:15;;;;;;;4.45;1.52;;;30.20;79.00;;;;;;5050094;28;20056;-63
2022/07/17 09:44:01;;;;;;;3.15;1.30;;;30.40;78.10;;;;;;5051653;28;20076;-63
2022/07/17 09:46:32;;;;;;;3.42;1.50;;;30.10;77.50;;;;;;5057083;28;20110;-62
2022/07/17 09:48:59;;;;;;;5.22;1.35;;;29.90;78.20;;;;;;5057238;28;20559;-62
2022/07/17 09:51:27;;;;;;;3.85;1.35;;;29.90;77.40;;;;;;5051129;28;20079;-62
2022/07/17 09:54:00;;;;;;;4.47;1.67;;;30.00;78.70;;;;;;5052826;28;20049;-63
2022/07/17 09:56:28;;;;;;;5.25;1.40;;;30.10;77.30;;;;;;5050887;28;20104;-61
2022/07/17 09:58:59;;;;;;;3.40;1.30;;;29.90;77.30;;;;;;5051352;28;20632;-62
2022/07/17 10:01:25;;;;;;;6.20;1.35;;;29.70;77.40;;;;;;5049986;28;20045;-63
2022/07/17 10:03:53;;;;;;;4.68;1.45;;;29.40;77.00;;;;;;5068743;28;20062;-61
2022/07/17 10:06:20;;;;;;;3.25;1.50;;;29.20;77.50;;;;;;5069668;28;20052;-62
2022/07/17 10:08:47;;;;;;;5.55;1.45;;;28.90;79.10;;;;;;5070643;28;20048;-62
2022/07/17 10:11:15;;;;;;;2.00;1.15;;;28.80;78.90;;;;;;5069688;28;20132;-61
2022/07/17 10:13:45;;;;;;;3.22;1.50;;;28.70;78.70;;;;;;5062957;28;20064;-62
2022/07/17 10:16:11;;;;;;;4.13;1.45;;;28.30;78.60;;;;;;5064540;28;20040;-62
2022/07/17 10:18:43;;;;;;;3.50;1.40;;;28.30;78.40;;;;;;5069093;28;20043;-62
2022/07/17 10:21:14;;;;;;;4.25;1.60;;;27.90;78.30;;;;;;5069898;28;20049;-65
2022/07/17 10:23:41;;;;;;;5.25;1.50;;;27.60;79.40;;;;;;5066166;28;20057;-61
2022/07/17 10:26:07;;;;;;;3.13;1.50;;;27.10;79.30;;;;;;5062318;28;20494;-62
2022/07/17 10:28:41;;;;;;;2.70;1.25;;;26.80;80.30;;;;;;5069357;28;20037;-61
2022/07/17 10:31:08;;;;;;;3.50;1.42;;;26.60;81.00;;;;;;5069999;28;20044;-61
2022/07/17 10:33:34;;;;;;;2.97;1.30;;;26.60;81.00;;;;;;5063065;28;20041;-62
2022/07/17 10:36:00;;;;;;;4.70;1.45;;;26.80;81.80;;;;;;5070163;28;20071;-61
2022/07/17 10:38:27;;;;;;;3.00;1.27;;;26.90;82.20;;;;;;5058623;28;20052;-60
2022/07/17 10:41:01;;;;;;;2.85;1.40;;;26.70;81.30;;;;;;5068831;28;20087;-62
2022/07/17 10:43:26;;;;;;;3.67;1.20;;;26.50;81.30;;;;;;5064803;28;20044;-62
2022/07/17 10:45:52;;;;;;;4.93;1.25;;;26.40;82.00;;;;;;5070024;28;20036;-61
2022/07/17 10:48:20;;;;;;;4.72;1.52;;;26.00;81.30;;;;;;5069354;28;20052;-61
2022/07/17 10:50:51;;;;;;;2.88;1.20;;;25.80;82.10;;;;;;5064560;28;20052;-63
2022/07/17 10:53:26;;;;;;;4.65;1.55;;;25.70;82.40;;;;;;5064126;28;20056;-62
2022/07/17 10:56:04;;;;;;;5.78;1.92;;;25.80;83.30;;;;;;5071808;28;20055;-62
2022/07/17 10:58:33;;;;;;;2.65;1.45;;;26.10;83.00;;;;;;5073389;28;20155;-61
2022/07/17 11:01:20;;;;;;;3.55;1.52;;;26.20;83.50;;;;;;5069218;28;20125;-62
2022/07/17 11:03:46;;;;;;;2.95;1.38;;;26.30;82.30;;;;;;5059406;28;20067;-62
2022/07/17 11:06:20;;;;;;;3.20;1.27;;;26.30;83.00;;;;;;5053545;28;20045;-62
2022/07/17 11:08:50;;;;;;;4.93;1.40;;;26.40;82.30;;;;;;5053828;28;20052;-62
2022/07/17 11:11:18;;;;;;;6.10;1.50;;;26.30;81.60;;;;;;5055667;28;20120;-65
2022/07/17 11:13:44;;;;;;;6.13;1.40;;;26.20;82.00;;;;;;5057754;28;20059;-62
2022/07/17 11:16:10;;;;;;;3.45;1.50;;;26.20;82.00;;;;;;5057768;28;20044;-62
2022/07/17 11:18:38;;;;;;;3.47;1.40;;;26.30;82.60;;;;;;5072132;28;20190;-62
2022/07/17 11:21:04;;;;;;;3.50;1.40;;;26.30;82.30;;;;;;5073470;28;20048;-61
2022/07/17 11:23:32;;;;;;;3.55;1.45;;;26.40;82.70;;;;;;5054218;28;20055;-64
2022/07/17 11:26:00;;;;;;;3.92;1.40;;;26.30;81.60;;;;;;5073229;28;20078;-60
2022/07/17 11:28:48;;;;;;;4.72;1.42;;;26.30;82.30;;;;;;5072036;28;20040;-60
2022/07/17 11:31:19;;;;;;;3.10;1.30;;;26.20;82.50;;;;;;5069184;28;20048;-61
2022/07/17 11:33:56;;;;;;;4.72;1.58;;;26.20;82.60;;;;;;5068876;28;20106;-62
2022/07/17 11:36:43;;;;;;;4.22;1.40;;;26.10;82.30;;;;;;5068893;28;20115;-62
2022/07/17 11:39:15;;;;;;;5.32;1.50;;;26.10;82.10;;;;;;5066521;28;21189;-61
2022/07/17 11:41:46;;;;;;;4.53;1.67;;;25.90;81.60;;;;;;5064133;28;20049;-61
2022/07/17 11:44:15;;;;;;;4.10;1.67;;;25.80;81.60;;;;;;5065295;28;20048;-61
2022/07/17 11:46:45;;;;;;;4.40;1.58;;;25.60;81.90;;;;;;5059539;28;20153;-62
2022/07/17 11:49:22;;;;;;;3.72;1.45;;;25.50;82.80;;;;;;5067252;28;20045;-61
2022/07/17 11:51:48;;;;;;;3.63;1.50;;;25.60;83.60;;;;;;5069139;28;20048;-61
2022/07/17 11:54:16;;;;;;;4.60;1.50;;;25.50;84.60;;;;;;5061556;28;20082;-62
2022/07/17 11:56:50;;;;;;;5.75;1.60;;;25.40;84.50;;;;;;5066185;28;20124;-60
2022/07/17 11:59:27;;;;;;;4.53;1.60;;;25.40;84.90;;;;;;5065696;28;20090;-62
2022/07/17 12:01:53;;;;;;;6.03;1.80;;;25.40;85.00;;;;;;5056731;28;20079;-63
2022/07/17 12:04:19;;;;;;;4.43;1.67;;;25.50;84.40;;;;;;5057976;28;20132;-61
2022/07/17 12:06:46;;;;;;;4.70;1.80;;;25.60;83.90;;;;;;5042054;28;20574;-62
2022/07/17 12:09:12;;;;;;;2.40;1.55;;;25.60;84.30;;;;;;5042775;28;20569;-61
2022/07/17 12:11:49;;;;;;;4.93;1.42;;;25.60;85.30;;;;;;5060801;28;20048;-61
2022/07/17 12:14:15;;;;;;;4.53;1.67;;;25.60;85.40;;;;;;5060610;28;20056;-62
2022/07/17 12:16:41;;;;;;;3.92;1.80;;;25.60;83.70;;;;;;5054980;28;20044;-62
2022/07/17 12:19:16;;;;;;;2.83;1.50;;;25.70;84.10;;;;;;5060601;28;20729;-62
2022/07/17 12:21:48;;;;;;;4.10;1.50;;;25.80;83.70;;;;;;5056346;28;20482;-61
2022/07/17 12:24:29;;;;;;;4.80;1.92;;;26.00;84.20;;;;;;5065081;28;20044;-62
2022/07/17 12:26:56;;;;;;;4.32;1.77;;;26.00;82.80;;;;;;5055276;28;20037;-62
2022/07/17 12:29:23;;;;;;;3.28;1.60;;;26.00;83.20;;;;;;5054256;28;20045;-62
2022/07/17 12:31:59;;;;;;;3.30;1.88;;;26.10;83.20;;;;;;5054650;28;20048;-62
2022/07/17 12:34:25;;;;;;;4.13;1.80;;;26.30;82.60;;;;;;5062583;28;20080;-62
2022/07/17 12:36:50;;;;;;;3.38;1.88;;;26.30;82.70;;;;;;5061134;28;20067;-62
2022/07/17 12:39:16;;;;;;;4.20;2.13;;;26.40;82.60;;;;;;5058049;28;20047;-61
2022/07/17 12:41:42;;;;;;;5.53;2.35;;;26.50;82.60;;;;;;5068712;28;20037;-61
2022/07/17 12:44:08;;;;;;;4.10;1.92;;;26.60;82.10;;;;;;5068778;28;20386;-61
2022/07/17 12:46:34;;;;;;;3.38;2.22;;;26.40;81.40;;;;;;5069886;28;20444;-62
2022/07/17 12:48:59;;;;;;;4.32;2.40;;;26.40;81.90;;;;;;5070969;28;20215;-61